createdAt,value
2022-09-16T00:00:02.463Z,19.2
2022-09-16T00:05:02.437Z,19.2
2022-09-16T00:10:02.637Z,19.2
2022-09-16T00:15:01.704Z,19.2
2022-09-16T00:20:01.903Z,19.2
2022-09-16T00:25:02.664Z,19.2
2022-09-16T00:30:02.640Z,19.2
2022-09-16T00:35:01.681Z,19.2
2022-09-16T00:40:02.356Z,19.2
2022-09-16T00:45:02.629Z,19.2
2022-09-16T00:50:01.861Z,19.2
2022-09-16T00:55:01.950Z,19.2
2022-09-16T01:00:02.531Z,19.2
2022-09-16T01:05:02.187Z,19.2
2022-09-16T01:10:02.358Z,19.2
2022-09-16T01:15:02.706Z,19.2
2022-09-16T01:20:01.564Z,19.2
2022-09-16T01:30:01.903Z,19.2
2022-09-16T01:35:02.428Z,19.2
2022-09-16T01:40:02.201Z,19.2
2022-09-16T01:45:02.294Z,19.2
2022-09-16T01:50:02.491Z,19.2
2022-09-16T01:55:02.729Z,19.2
2022-09-16T02:00:02.666Z,19.2
2022-09-16T02:05:01.715Z,19.2
2022-09-16T02:10:01.897Z,19.2
2022-09-16T02:15:02.005Z,19.2
2022-09-16T02:20:02.137Z,19.2
2022-09-16T02:25:02.269Z,19.2
2022-09-16T02:30:02.485Z,19.2
2022-09-16T02:35:02.638Z,19.2
2022-09-16T02:40:01.840Z,19.2
2022-09-16T02:45:01.690Z,19.2
2022-09-16T02:50:02.682Z,19.2
2022-09-16T02:55:02.157Z,19.2
2022-09-16T03:00:03.061Z,19.2
2022-09-16T03:05:03.909Z,19.2
2022-09-16T03:10:03.799Z,19.2
2022-09-16T03:15:03.197Z,19.2
2022-09-16T03:20:01.662Z,19.2
2022-09-16T03:25:02.860Z,19.2
2022-09-16T03:30:02.167Z,19.2
2022-09-16T03:35:03.027Z,19.2
2022-09-16T03:40:03.395Z,19.2
2022-09-16T03:45:03.140Z,19.2
2022-09-16T03:50:02.691Z,19.2
2022-09-16T03:55:03.891Z,19.2
2022-09-16T04:00:03.266Z,19.2
2022-09-16T04:05:03.151Z,19.2
2022-09-16T04:10:02.875Z,19.2
2022-09-16T04:15:02.640Z,19.2
2022-09-16T04:20:02.629Z,19.2
2022-09-16T04:25:01.701Z,19.2
2022-09-16T04:30:02.608Z,19.2
2022-09-16T04:35:02.608Z,19.2
2022-09-16T04:40:04.642Z,19.2
2022-09-16T04:45:02.224Z,19.2
2022-09-16T04:50:02.319Z,19.2
2022-09-16T04:55:03.241Z,19.2
2022-09-16T05:00:02.654Z,19.2
2022-09-16T05:05:02.464Z,19.2
2022-09-16T05:10:02.764Z,19.2
2022-09-16T05:15:02.257Z,19.2
2022-09-16T05:20:02.943Z,19.2
2022-09-16T05:25:02.373Z,19.2
2022-09-16T05:30:02.685Z,19.2
2022-09-16T05:35:02.441Z,19.2
2022-09-16T05:40:02.631Z,19.2
2022-09-16T05:45:02.003Z,19.2
2022-09-16T05:50:02.486Z,19.2
2022-09-16T05:55:02.277Z,19.2
2022-09-16T06:00:02.467Z,19.2
2022-09-16T06:05:03.433Z,19.2
2022-09-16T06:10:02.570Z,11.4
2022-09-16T06:15:01.910Z,11.5
2022-09-16T06:20:02.022Z,11.6
2022-09-16T06:25:02.140Z,11.7
2022-09-16T06:30:02.537Z,11.9
2022-09-16T06:35:03.654Z,12.1
2022-09-16T06:40:02.544Z,12.3
2022-09-16T06:45:01.956Z,12.5
2022-09-16T06:50:02.101Z,12.7
2022-09-16T06:55:02.152Z,12.9
2022-09-16T07:00:02.323Z,13.1
2022-09-16T07:05:02.821Z,13.3
2022-09-16T07:10:03.103Z,13.4
2022-09-16T07:15:03.330Z,13.7
2022-09-16T07:20:02.555Z,13.9
2022-09-16T07:25:01.694Z,13.9
2022-09-16T07:30:03.570Z,14.1
2022-09-16T07:35:02.809Z,14.3
2022-09-16T07:40:03.070Z,14.4
2022-09-16T07:45:03.415Z,14.6
2022-09-16T07:50:01.813Z,14.6
2022-09-16T07:55:01.877Z,14.8
2022-09-16T08:00:02.896Z,15.1
2022-09-16T08:05:02.945Z,14.9
2022-09-16T08:10:03.230Z,14.9
2022-09-16T08:15:03.406Z,14.9
2022-09-16T08:20:01.761Z,15.1
2022-09-16T08:25:01.863Z,15.3
2022-09-16T08:30:02.945Z,15.8
2022-09-16T08:35:02.875Z,16.1
2022-09-16T08:40:03.305Z,16
2022-09-16T08:45:03.355Z,16
2022-09-16T08:50:02.312Z,16.1
2022-09-16T08:55:02.319Z,16.3
2022-09-16T09:00:02.942Z,16.4
2022-09-16T09:05:02.665Z,16.7
2022-09-16T09:10:04.940Z,16.4
2022-09-16T09:15:02.836Z,16.4
2022-09-16T09:20:03.123Z,16.6
2022-09-16T09:25:02.269Z,16.8
2022-09-16T09:30:02.555Z,16.8
2022-09-16T09:35:03.315Z,16.5
2022-09-16T09:40:02.649Z,16.3
2022-09-16T09:45:02.889Z,16.4
2022-09-16T09:50:02.100Z,16.2
2022-09-16T09:55:02.173Z,16.2
2022-09-16T10:00:03.149Z,16.2
2022-09-16T10:05:03.692Z,16.2
2022-09-16T10:10:03.466Z,16.2
2022-09-16T10:15:03.108Z,16.2
2022-09-16T10:20:01.910Z,16.2
2022-09-16T10:25:02.295Z,16.2
2022-09-16T10:30:02.341Z,16.2
2022-09-16T10:35:03.266Z,16.2
2022-09-16T10:40:03.459Z,16.2
2022-09-16T10:45:03.007Z,16.2
2022-09-16T10:50:02.022Z,16.2
2022-09-16T10:55:02.162Z,16.2
2022-09-16T11:00:03.157Z,16.2
2022-09-16T11:05:03.513Z,16.2
2022-09-16T11:10:02.640Z,16.2
2022-09-16T11:15:02.771Z,16.2
2022-09-16T11:20:02.029Z,16.2
2022-09-16T11:25:02.378Z,16.2
2022-09-16T11:30:02.378Z,16.2
2022-09-16T11:35:03.248Z,16.2
2022-09-16T11:40:02.523Z,16.2
2022-09-16T11:45:02.952Z,16.2
2022-09-16T11:50:01.942Z,16.2
2022-09-16T11:55:02.100Z,16.2
2022-09-16T12:00:02.168Z,16.2
2022-09-16T12:05:03.299Z,16.2
2022-09-16T12:10:03.098Z,16.2
2022-09-16T12:15:05.753Z,16.2
2022-09-16T12:20:02.654Z,16.2
2022-09-16T12:25:01.948Z,16.2
2022-09-16T12:30:02.001Z,16.2
2022-09-16T12:35:02.870Z,16.2
2022-09-16T12:40:03.130Z,16.2
2022-09-16T12:45:03.663Z,16.2
2022-09-16T12:50:01.997Z,16.2
2022-09-16T12:55:09.373Z,16.2
2022-09-16T13:00:02.399Z,16.2
2022-09-16T13:05:03.509Z,16.2
2022-09-16T13:10:02.460Z,16.2
2022-09-16T13:15:02.699Z,16.2
2022-09-16T13:20:01.974Z,16.2
2022-09-16T13:25:06.793Z,16.2
2022-09-16T13:30:02.403Z,16.2
2022-09-16T13:35:03.420Z,16.2
2022-09-16T13:40:03.385Z,16.2
2022-09-16T13:45:03.390Z,16.2
2022-09-16T13:50:02.475Z,16.2
2022-09-16T13:55:11.218Z,16.2
2022-09-16T14:00:02.007Z,16.2
2022-09-16T14:05:03.117Z,16.2
2022-09-16T14:10:03.863Z,16.2
2022-09-16T14:15:03.113Z,16.2
2022-09-16T14:20:02.473Z,16.2
2022-09-16T14:25:07.096Z,16.2
2022-09-16T14:30:01.717Z,16.2
2022-09-16T14:35:02.724Z,16.2
2022-09-16T14:40:02.900Z,16.2
2022-09-16T14:45:03.669Z,16.2
2022-09-16T14:50:02.423Z,16.2
2022-09-16T14:55:02.330Z,16.2
2022-09-16T15:00:02.547Z,16.2
2022-09-16T15:05:03.649Z,16.2
2022-09-16T15:10:02.512Z,16.2
2022-09-16T15:15:02.862Z,16.2
2022-09-16T15:20:02.295Z,16.2
2022-09-16T15:25:02.343Z,16.2
2022-09-16T15:30:02.562Z,16.2
2022-09-16T15:35:03.399Z,16.2
2022-09-16T15:40:02.546Z,16.2
2022-09-16T15:45:02.935Z,16.2
2022-09-16T15:50:02.440Z,16.2
2022-09-16T15:55:02.677Z,16.2
2022-09-16T16:00:01.739Z,16.2
2022-09-16T16:05:02.739Z,16.2
2022-09-16T16:10:02.799Z,16.2
2022-09-16T16:15:03.232Z,16.2
2022-09-16T16:20:02.353Z,16.2
2022-09-16T16:25:02.581Z,16.2
2022-09-16T16:30:02.721Z,16.2
2022-09-16T16:35:02.713Z,16.2
2022-09-16T16:40:02.774Z,16.2
2022-09-16T16:45:03.609Z,16.2
2022-09-16T16:50:02.652Z,16.2
2022-09-16T16:55:02.500Z,16.2
2022-09-16T17:00:01.766Z,16.2
2022-09-16T17:05:02.683Z,16.2
2022-09-16T17:10:02.743Z,16.2
2022-09-16T17:15:03.026Z,16.2
2022-09-16T17:20:01.659Z,16.2
2022-09-16T17:25:02.099Z,16.2
2022-09-16T17:30:01.940Z,16.2
2022-09-16T17:35:02.981Z,16.2
2022-09-16T17:40:03.085Z,16.2
2022-09-16T17:45:03.502Z,16.2
2022-09-16T17:50:02.653Z,16.2
2022-09-16T17:55:01.885Z,16.2
2022-09-16T18:00:02.128Z,16.2
2022-09-16T18:05:03.491Z,16.2
2022-09-16T18:10:03.243Z,16.2
2022-09-16T18:15:02.579Z,16.2
2022-09-16T18:20:06.368Z,16.2
2022-09-16T18:25:02.297Z,16.2
2022-09-16T18:30:02.283Z,16.2
2022-09-16T18:35:03.146Z,16.2
2022-09-16T18:40:03.424Z,16.2
2022-09-16T18:45:03.496Z,16.2
2022-09-16T18:50:02.131Z,16.2
2022-09-16T18:55:02.189Z,16.2
2022-09-16T19:00:03.193Z,16.2
2022-09-16T19:05:03.662Z,16.2
2022-09-16T19:10:02.398Z,16.2
2022-09-16T19:15:02.810Z,16.2
2022-09-16T19:20:02.139Z,16.2
2022-09-16T19:25:02.326Z,16.2
2022-09-16T19:30:02.435Z,16.2
2022-09-16T19:35:03.349Z,16.2
2022-09-16T19:40:02.503Z,16.2
2022-09-16T19:45:02.842Z,16.2
2022-09-16T19:50:02.031Z,16.2
2022-09-16T19:55:02.238Z,16.2
2022-09-16T20:00:02.358Z,16.2
2022-09-16T20:05:05.055Z,16.2
2022-09-16T20:10:03.384Z,16.2
2022-09-16T20:15:03.280Z,16.2
2022-09-16T20:20:02.138Z,16.2
2022-09-16T20:25:21.660Z,16.2
2022-09-16T20:30:02.519Z,16.2
2022-09-16T20:35:02.727Z,16.2
2022-09-16T20:40:02.821Z,16.2
2022-09-16T20:45:03.132Z,16.2
2022-09-16T20:50:02.294Z,16.2
2022-09-16T20:55:02.090Z,16.2
2022-09-16T21:00:02.482Z,16.2
2022-09-16T21:05:03.286Z,16.2
2022-09-16T21:10:03.336Z,16.2
2022-09-16T21:15:02.773Z,16.2
2022-09-16T21:20:01.928Z,16.2
2022-09-16T21:25:02.177Z,16.2
2022-09-16T21:30:02.392Z,16.2
2022-09-16T21:35:03.096Z,16.2
2022-09-16T21:40:03.354Z,16.2
2022-09-16T21:45:02.805Z,16.2
2022-09-16T21:50:01.888Z,16.2
2022-09-16T21:55:02.088Z,16.2
2022-09-16T22:00:02.331Z,16.2
2022-09-16T22:05:02.396Z,16.2
2022-09-16T22:10:02.527Z,16.2
2022-09-16T22:15:02.630Z,16.2
2022-09-16T22:20:01.798Z,16.2
2022-09-16T22:25:01.981Z,16.2
2022-09-16T22:30:02.099Z,16.2
2022-09-16T22:35:02.151Z,16.2
2022-09-16T22:40:02.372Z,16.2
2022-09-16T22:45:03.487Z,16.2
2022-09-16T22:50:02.619Z,16.2
2022-09-16T22:55:03.336Z,16.2
2022-09-16T23:00:02.414Z,16.2
2022-09-16T23:05:03.029Z,16.2
2022-09-16T23:10:05.284Z,16.2
2022-09-16T23:15:02.372Z,16.2
2022-09-16T23:20:02.430Z,16.2
2022-09-16T23:25:02.636Z,16.2
2022-09-16T23:30:02.647Z,16.2
2022-09-16T23:35:01.623Z,16.2
2022-09-16T23:40:01.971Z,16.2
2022-09-16T23:45:02.203Z,16.2
2022-09-16T23:50:02.100Z,16.2
2022-09-16T23:55:02.249Z,16.2
